createdAt,value
2022-10-25T00:02:02.612Z,8.83
2022-10-25T00:04:24.923Z,5.10
2022-10-25T00:06:47.117Z,5.93
2022-10-25T00:09:09.434Z,7.00
2022-10-25T00:11:32.685Z,6.30
2022-10-25T00:13:56.200Z,3.50
2022-10-25T00:16:19.724Z,4.03
2022-10-25T00:18:41.902Z,5.47
2022-10-25T00:21:07.061Z,5.60
2022-10-25T00:23:29.507Z,5.17
2022-10-25T00:26:00.918Z,9.23
2022-10-25T00:28:23.076Z,6.83
2022-10-25T00:30:45.250Z,4.67
2022-10-25T00:33:07.422Z,4.63
2022-10-25T00:35:29.636Z,7.43
2022-10-25T00:37:52.075Z,8.47
2022-10-25T00:40:14.336Z,5.70
2022-10-25T00:42:36.513Z,9.70
2022-10-25T00:45:01.609Z,6.03
2022-10-25T00:47:42.919Z,6.63
2022-10-25T00:50:14.292Z,7.47
2022-10-25T00:52:37.480Z,7.90
2022-10-25T00:55:00.655Z,6.33
2022-10-25T00:57:25.860Z,7.83
2022-10-25T00:59:48.381Z,8.03
2022-10-25T01:02:10.752Z,3.53
2022-10-25T01:04:34.079Z,9.40
2022-10-25T01:06:56.345Z,6.57
2022-10-25T01:09:24.062Z,10.43
2022-10-25T01:11:46.360Z,7.67
2022-10-25T01:14:09.830Z,9.87
2022-10-25T01:16:49.916Z,9.57
2022-10-25T01:19:17.909Z,10.23
2022-10-25T01:21:48.516Z,6.40
2022-10-25T01:24:19.825Z,7.47
2022-10-25T01:26:57.336Z,7.63
2022-10-25T01:29:19.500Z,3.77
2022-10-25T01:32:25.711Z,5.83
2022-10-25T01:34:53.705Z,10.53
2022-10-25T01:37:20.365Z,7.37
2022-10-25T01:39:46.108Z,5.93
2022-10-25T01:42:26.803Z,13.13
2022-10-25T01:45:09.641Z,6.70
2022-10-25T01:47:37.373Z,5.03
2022-10-25T01:50:05.807Z,11.73
2022-10-25T01:52:28.318Z,4.60
2022-10-25T01:54:51.133Z,6.43
2022-10-25T01:57:16.296Z,5.83
2022-10-25T01:59:50.880Z,6.07
2022-10-25T02:02:16.241Z,8.90
2022-10-25T02:04:47.496Z,6.03
2022-10-25T02:07:16.307Z,8.17
2022-10-25T02:09:52.776Z,8.80
2022-10-25T02:12:19.369Z,6.00
2022-10-25T02:14:46.067Z,9.60
2022-10-25T02:17:19.829Z,7.60
2022-10-25T02:19:44.146Z,8.33
2022-10-25T02:22:08.671Z,6.07
2022-10-25T02:24:32.828Z,5.90
2022-10-25T02:26:55.804Z,4.73
2022-10-25T02:29:19.652Z,7.80
2022-10-25T02:31:42.375Z,9.40
2022-10-25T02:34:04.771Z,12.13
2022-10-25T02:36:26.962Z,5.93
2022-10-25T02:38:50.412Z,7.77
2022-10-25T02:41:12.924Z,8.27
2022-10-25T02:43:35.235Z,6.30
2022-10-25T02:45:57.417Z,7.13
2022-10-25T02:48:19.821Z,6.67
2022-10-25T02:50:42.004Z,3.37
2022-10-25T02:53:04.187Z,7.43
2022-10-25T02:55:26.344Z,9.97
2022-10-25T02:57:48.540Z,10.90
2022-10-25T03:02:38.307Z,6.43
2022-10-25T03:05:00.520Z,8.40
2022-10-25T03:07:22.702Z,13.07
2022-10-25T03:09:44.899Z,6.37
2022-10-25T03:12:07.104Z,6.50
2022-10-25T03:14:29.274Z,12.83
2022-10-25T03:16:51.461Z,7.43
2022-10-25T03:19:13.655Z,9.07
2022-10-25T03:21:38.636Z,11.53
2022-10-25T03:24:03.525Z,8.20
2022-10-25T03:26:25.696Z,5.03
2022-10-25T03:28:47.894Z,8.50
2022-10-25T03:31:14.483Z,8.43
2022-10-25T03:33:36.722Z,7.77
2022-10-25T03:35:59.152Z,7.03
2022-10-25T03:38:21.777Z,8.67
2022-10-25T03:40:44.416Z,7.80
2022-10-25T03:43:06.625Z,8.40
2022-10-25T03:45:28.860Z,8.27
2022-10-25T03:47:51.028Z,9.87
2022-10-25T03:50:13.408Z,6.53
2022-10-25T03:52:36.108Z,10.03
2022-10-25T03:54:59.141Z,7.30
2022-10-25T03:57:21.387Z,6.33
2022-10-25T03:59:44.468Z,6.47
2022-10-25T04:02:06.694Z,9.33
2022-10-25T04:04:28.961Z,6.83
2022-10-25T04:06:51.177Z,9.67
2022-10-25T04:09:13.354Z,5.87
2022-10-25T04:11:35.625Z,10.97
2022-10-25T04:13:57.797Z,8.27
2022-10-25T04:16:20.969Z,9.93
2022-10-25T04:18:43.439Z,6.73
2022-10-25T04:21:05.652Z,9.37
2022-10-25T04:23:27.844Z,8.97
2022-10-25T04:25:50.432Z,6.73
2022-10-25T04:28:12.653Z,11.00
2022-10-25T04:30:37.921Z,10.87
2022-10-25T04:33:01.014Z,14.57
2022-10-25T04:35:23.168Z,14.87
2022-10-25T04:37:45.405Z,8.70
2022-10-25T04:40:08.165Z,12.80
2022-10-25T04:42:30.444Z,8.50
2022-10-25T04:44:52.613Z,8.63
2022-10-25T04:47:14.832Z,10.80
2022-10-25T04:49:36.989Z,10.17
2022-10-25T04:52:00.030Z,4.63
2022-10-25T04:54:23.005Z,7.10
2022-10-25T04:56:45.174Z,7.90
2022-10-25T04:59:07.422Z,7.50
2022-10-25T05:01:29.984Z,9.37
2022-10-25T05:03:52.333Z,9.50
2022-10-25T05:06:14.485Z,9.93
2022-10-25T05:08:37.004Z,9.30
2022-10-25T05:11:00.018Z,9.17
2022-10-25T05:13:22.324Z,12.27
2022-10-25T05:15:44.482Z,9.33
2022-10-25T05:18:07.108Z,6.60
2022-10-25T05:20:29.366Z,11.07
2022-10-25T05:22:51.540Z,9.43
2022-10-25T05:25:13.769Z,10.97
2022-10-25T05:27:39.645Z,9.90
2022-10-25T05:30:01.797Z,7.27
2022-10-25T05:32:23.980Z,6.67
2022-10-25T05:34:46.169Z,8.87
2022-10-25T05:37:08.336Z,10.53
2022-10-25T05:39:30.813Z,9.93
2022-10-25T05:41:53.988Z,9.07
2022-10-25T05:44:16.657Z,5.77
2022-10-25T05:46:39.050Z,7.57
2022-10-25T05:49:01.331Z,9.55
2022-10-25T05:51:34.772Z,7.80
2022-10-25T05:53:59.512Z,6.80
2022-10-25T05:56:22.981Z,4.13
2022-10-25T05:58:45.406Z,6.60
2022-10-25T06:01:08.050Z,8.83
2022-10-25T06:03:30.472Z,6.20
2022-10-25T06:05:52.670Z,11.20
2022-10-25T06:08:14.892Z,7.57
2022-10-25T06:10:37.059Z,10.77
2022-10-25T06:12:59.577Z,8.40
2022-10-25T06:15:21.816Z,4.70
2022-10-25T06:17:43.971Z,8.77
2022-10-25T06:20:06.358Z,8.37
2022-10-25T06:22:28.545Z,6.70
2022-10-25T06:24:50.761Z,5.33
2022-10-25T06:27:12.937Z,6.47
2022-10-25T06:29:35.205Z,5.27
2022-10-25T06:31:57.423Z,6.17
2022-10-25T06:34:20.536Z,9.80
2022-10-25T06:36:42.736Z,8.43
2022-10-25T06:39:06.708Z,9.00
2022-10-25T06:41:31.407Z,9.60
2022-10-25T06:43:53.793Z,5.47
2022-10-25T06:46:21.654Z,9.40
2022-10-25T06:48:43.831Z,4.93
2022-10-25T06:51:07.155Z,8.17
2022-10-25T06:53:29.454Z,7.15
2022-10-25T06:55:51.657Z,9.17
2022-10-25T06:58:14.128Z,7.80
2022-10-25T07:00:36.278Z,11.33
2022-10-25T07:02:59.525Z,7.30
2022-10-25T07:05:21.713Z,12.23
2022-10-25T07:07:44.202Z,8.43
2022-10-25T07:10:06.613Z,6.13
2022-10-25T07:12:29.735Z,6.38
2022-10-25T07:14:51.912Z,8.55
2022-10-25T07:17:14.157Z,6.43
2022-10-25T07:19:36.341Z,8.98
2022-10-25T07:21:58.673Z,9.00
2022-10-25T07:24:21.053Z,8.43
2022-10-25T07:26:43.273Z,6.18
2022-10-25T07:29:05.557Z,9.10
2022-10-25T07:31:29.363Z,8.02
2022-10-25T07:33:52.621Z,7.50
2022-10-25T07:36:14.794Z,7.93
2022-10-25T07:38:37.426Z,7.87
2022-10-25T07:40:59.824Z,9.40
2022-10-25T07:43:21.993Z,4.05
2022-10-25T07:45:44.249Z,7.53
2022-10-25T07:48:06.497Z,6.03
2022-10-25T07:50:28.689Z,10.90
2022-10-25T07:52:50.886Z,6.30
2022-10-25T07:55:13.985Z,8.23
2022-10-25T07:57:36.120Z,3.80
2022-10-25T07:59:58.323Z,6.85
2022-10-25T08:02:24.190Z,7.18
2022-10-25T08:04:51.059Z,10.20
2022-10-25T08:07:15.753Z,5.85
2022-10-25T08:09:38.755Z,6.55
2022-10-25T08:12:01.169Z,5.05
2022-10-25T08:16:52.145Z,7.82
2022-10-25T08:19:14.597Z,7.80
2022-10-25T08:21:36.780Z,7.22
2022-10-25T08:23:58.936Z,8.45
2022-10-25T08:26:25.066Z,6.85
2022-10-25T08:28:47.280Z,11.15
2022-10-25T08:31:10.311Z,3.97
2022-10-25T08:33:34.297Z,7.97
2022-10-25T08:35:56.675Z,6.95
2022-10-25T08:38:19.186Z,5.88
2022-10-25T08:40:52.152Z,4.38
2022-10-25T08:43:14.327Z,12.75
2022-10-25T08:45:56.961Z,5.80
2022-10-25T08:48:21.385Z,8.80
2022-10-25T08:50:45.845Z,7.05
2022-10-25T08:53:13.200Z,4.45
2022-10-25T08:55:58.799Z,9.23
2022-10-25T08:58:33.530Z,7.95
2022-10-25T09:00:57.136Z,7.07
2022-10-25T09:03:25.513Z,7.47
2022-10-25T09:06:08.113Z,4.60
2022-10-25T09:08:43.930Z,5.53
2022-10-25T09:11:26.405Z,5.80
2022-10-25T09:14:06.966Z,5.20
2022-10-25T09:16:35.786Z,6.82
2022-10-25T09:18:58.154Z,3.47
2022-10-25T09:21:23.080Z,6.10
2022-10-25T09:23:51.688Z,5.18
2022-10-25T09:26:33.484Z,1.95
2022-10-25T09:28:55.641Z,4.15
2022-10-25T09:31:20.873Z,4.85
2022-10-25T09:33:46.228Z,5.00
2022-10-25T09:36:09.038Z,3.75
2022-10-25T09:38:31.202Z,2.95
2022-10-25T09:41:04.870Z,4.53
2022-10-25T09:43:34.665Z,4.40
2022-10-25T09:45:59.177Z,2.95
2022-10-25T09:48:30.672Z,6.82
2022-10-25T09:51:04.971Z,3.15
2022-10-25T09:53:27.424Z,3.25
2022-10-25T09:55:49.736Z,2.33
2022-10-25T09:58:16.113Z,3.10
2022-10-25T10:00:40.950Z,6.63
2022-10-25T10:03:03.182Z,4.50
2022-10-25T10:05:25.474Z,2.50
2022-10-25T10:07:48.931Z,1.60
2022-10-25T10:10:16.660Z,2.90
2022-10-25T10:12:41.937Z,4.03
2022-10-25T10:15:21.719Z,3.83
2022-10-25T10:17:44.076Z,3.80
2022-10-25T10:20:09.466Z,2.97
2022-10-25T10:22:31.710Z,2.28
2022-10-25T10:24:59.933Z,3.45
2022-10-25T10:27:22.077Z,6.35
2022-10-25T10:30:02.898Z,5.93
2022-10-25T10:32:27.715Z,2.80
2022-10-25T10:34:54.338Z,2.45
2022-10-25T10:37:18.893Z,1.45
2022-10-25T10:39:51.427Z,2.40
2022-10-25T10:42:18.070Z,2.25
2022-10-25T10:44:40.321Z,2.22
2022-10-25T10:47:10.875Z,4.60
2022-10-25T10:49:35.357Z,4.85
2022-10-25T10:51:57.605Z,6.50
2022-10-25T10:54:29.775Z,3.97
2022-10-25T10:56:56.156Z,4.78
2022-10-25T10:59:29.816Z,5.75
2022-10-25T11:01:52.139Z,2.88
2022-10-25T11:04:14.636Z,5.53
2022-10-25T11:06:36.914Z,2.42
2022-10-25T11:09:25.388Z,5.93
2022-10-25T11:12:07.637Z,4.20
2022-10-25T11:14:29.844Z,5.03
2022-10-25T11:16:59.556Z,4.93
2022-10-25T11:19:42.177Z,4.72
2022-10-25T11:22:07.340Z,4.15
2022-10-25T11:24:48.306Z,4.22
2022-10-25T11:27:13.848Z,2.92
2022-10-25T11:29:36.008Z,3.88
2022-10-25T11:32:06.818Z,5.32
2022-10-25T11:34:32.028Z,4.40
2022-10-25T11:37:09.381Z,5.60
2022-10-25T11:39:38.401Z,7.20
2022-10-25T11:42:19.797Z,4.35
2022-10-25T11:44:48.188Z,5.97
2022-10-25T11:47:13.435Z,4.20
2022-10-25T11:49:35.621Z,2.60
2022-10-25T11:52:03.946Z,2.90
2022-10-25T11:54:26.176Z,3.63
2022-10-25T11:57:05.761Z,5.80
2022-10-25T11:59:39.235Z,6.38
2022-10-25T12:02:42.253Z,4.00
2022-10-25T12:05:04.501Z,4.35
2022-10-25T12:07:32.989Z,3.30
2022-10-25T12:10:02.840Z,3.85
2022-10-25T12:12:27.578Z,4.50
2022-10-25T12:14:55.435Z,6.70
2022-10-25T12:17:29.056Z,5.68
2022-10-25T12:19:52.803Z,5.88
2022-10-25T12:22:21.141Z,3.15
2022-10-25T12:25:01.151Z,6.63
2022-10-25T12:27:24.776Z,5.40
2022-10-25T12:29:50.361Z,3.35
2022-10-25T12:32:22.244Z,3.75
2022-10-25T12:34:50.748Z,5.07
2022-10-25T12:37:25.010Z,5.00
2022-10-25T12:39:47.172Z,2.95
2022-10-25T12:42:18.199Z,17.17
2022-10-25T12:44:52.515Z,3.25
2022-10-25T12:47:25.871Z,3.65
2022-10-25T12:50:06.800Z,4.57
2022-10-25T12:52:34.385Z,6.22
2022-10-25T12:55:07.887Z,7.00
2022-10-25T12:57:39.016Z,4.30
2022-10-25T13:00:12.504Z,3.60
2022-10-25T13:02:53.679Z,3.30
2022-10-25T13:05:45.201Z,2.92
2022-10-25T13:08:07.912Z,2.92
2022-10-25T13:10:33.409Z,2.60
2022-10-25T13:13:14.491Z,7.57
2022-10-25T13:15:40.893Z,3.15
2022-10-25T13:18:04.884Z,3.65
2022-10-25T13:20:36.023Z,2.90
2022-10-25T13:22:58.248Z,2.75
2022-10-25T13:25:32.328Z,3.00
2022-10-25T13:28:13.045Z,2.13
2022-10-25T13:30:35.241Z,3.50
2022-10-25T13:33:16.047Z,2.53
2022-10-25T13:35:38.225Z,3.88
2022-10-25T13:38:08.066Z,1.58
2022-10-25T13:40:31.636Z,2.75
2022-10-25T13:42:59.808Z,2.47
2022-10-25T13:45:30.007Z,3.38
2022-10-25T13:47:55.957Z,3.30
2022-10-25T13:50:33.164Z,2.88
2022-10-25T13:53:02.444Z,4.00
2022-10-25T13:55:25.705Z,3.05
2022-10-25T13:58:00.204Z,5.60
2022-10-25T14:00:22.377Z,4.63
2022-10-25T14:03:03.442Z,3.47
2022-10-25T14:05:44.625Z,3.08
2022-10-25T14:08:19.805Z,10.98
2022-10-25T14:10:42.006Z,4.30
2022-10-25T14:13:15.241Z,3.72
2022-10-25T14:15:44.662Z,3.78
2022-10-25T14:18:08.348Z,3.08
2022-10-25T14:20:32.161Z,3.65
2022-10-25T14:23:00.279Z,4.65
2022-10-25T14:25:24.328Z,5.55
2022-10-25T14:27:46.670Z,12.85
2022-10-25T14:30:28.745Z,3.50
2022-10-25T14:32:52.614Z,2.90
2022-10-25T14:35:14.842Z,3.58
2022-10-25T14:37:43.757Z,7.13
2022-10-25T14:40:16.396Z,3.25
2022-10-25T14:42:38.883Z,5.05
2022-10-25T14:45:01.129Z,5.53
2022-10-25T14:47:33.316Z,2.80
2022-10-25T14:49:55.803Z,3.55
2022-10-25T14:52:18.036Z,3.78
2022-10-25T14:54:41.281Z,7.38
2022-10-25T14:57:06.001Z,5.95
2022-10-25T14:59:42.584Z,6.32
2022-10-25T15:02:06.685Z,6.97
2022-10-25T15:04:49.208Z,2.97
2022-10-25T15:07:22.157Z,4.45
2022-10-25T15:09:51.590Z,3.40
2022-10-25T15:12:13.802Z,8.10
2022-10-25T15:14:36.792Z,4.38
2022-10-25T15:17:03.100Z,6.70
2022-10-25T15:19:25.404Z,7.60
2022-10-25T15:21:51.769Z,4.45
2022-10-25T15:24:17.033Z,4.07
2022-10-25T15:26:39.208Z,5.53
2022-10-25T15:29:02.292Z,3.80
2022-10-25T15:31:25.718Z,4.45
2022-10-25T15:33:48.377Z,3.97
2022-10-25T15:36:20.751Z,4.88
2022-10-25T15:39:06.217Z,3.33
2022-10-25T15:41:25.277Z,3.08
2022-10-25T15:43:47.533Z,4.28
2022-10-25T15:46:18.450Z,6.00
2022-10-25T15:48:43.132Z,7.22
2022-10-25T15:51:05.403Z,8.30
2022-10-25T15:53:27.828Z,7.63
2022-10-25T15:55:50.573Z,6.38
2022-10-25T15:58:12.795Z,4.63
2022-10-25T16:00:35.385Z,3.42
2022-10-25T16:02:58.152Z,3.28
2022-10-25T16:05:31.000Z,3.70
2022-10-25T16:07:53.556Z,3.08
2022-10-25T16:10:15.909Z,1.98
2022-10-25T16:12:38.403Z,4.20
2022-10-25T16:15:00.659Z,4.82
2022-10-25T16:17:22.839Z,3.72
2022-10-25T16:19:45.117Z,5.47
2022-10-25T16:22:07.316Z,3.45
2022-10-25T16:24:30.192Z,4.15
2022-10-25T16:26:52.673Z,4.90
2022-10-25T16:29:24.563Z,4.38
2022-10-25T16:31:46.784Z,2.88
2022-10-25T16:34:09.093Z,2.08
2022-10-25T16:36:31.296Z,2.25
2022-10-25T16:38:53.488Z,5.95
2022-10-25T16:41:32.147Z,25.87
2022-10-25T16:43:54.360Z,6.32
2022-10-25T16:46:16.596Z,5.10
2022-10-25T16:48:38.943Z,5.80
2022-10-25T16:51:01.114Z,4.97
2022-10-25T16:53:23.420Z,10.03
2022-10-25T16:55:45.564Z,3.27
2022-10-25T16:58:07.989Z,4.83
2022-10-25T17:00:32.382Z,5.40
2022-10-25T17:02:54.842Z,7.55
2022-10-25T17:05:27.855Z,7.77
2022-10-25T17:07:50.755Z,5.43
2022-10-25T17:10:14.060Z,4.88
2022-10-25T17:12:42.440Z,5.27
2022-10-25T17:15:04.795Z,2.63
2022-10-25T17:17:27.073Z,3.60
2022-10-25T17:19:49.253Z,2.77
2022-10-25T17:22:11.419Z,5.63
2022-10-25T17:24:39.381Z,4.10
2022-10-25T17:27:01.607Z,2.07
2022-10-25T17:29:23.840Z,11.27
2022-10-25T17:31:46.131Z,7.40
2022-10-25T17:34:10.305Z,3.27
2022-10-25T17:36:32.649Z,5.87
2022-10-25T17:38:54.983Z,7.47
2022-10-25T17:41:17.168Z,7.30
2022-10-25T17:43:40.232Z,7.60
2022-10-25T17:46:03.784Z,11.90
2022-10-25T17:48:26.144Z,7.27
2022-10-25T17:50:49.533Z,5.00
2022-10-25T17:53:11.840Z,14.90
2022-10-25T17:55:39.064Z,13.33
2022-10-25T17:58:15.691Z,7.80
2022-10-25T18:00:37.947Z,7.13
2022-10-25T18:03:00.173Z,3.87
2022-10-25T18:05:22.512Z,4.63
2022-10-25T18:07:44.718Z,3.20
2022-10-25T18:10:07.242Z,8.97
2022-10-25T18:12:30.379Z,9.13
2022-10-25T18:14:55.771Z,7.40
2022-10-25T18:17:18.069Z,9.23
2022-10-25T18:19:40.308Z,13.93
2022-10-25T18:22:04.170Z,14.20
2022-10-25T18:24:26.477Z,11.87
2022-10-25T18:26:48.721Z,8.20
2022-10-25T18:29:11.001Z,61.50
2022-10-25T18:31:33.285Z,14.87
2022-10-25T18:33:56.247Z,9.93
2022-10-25T18:36:19.875Z,9.60
2022-10-25T18:38:42.484Z,8.50
2022-10-25T18:41:08.465Z,7.83
2022-10-25T18:43:30.994Z,16.83
2022-10-25T18:45:59.406Z,69.10
2022-10-25T18:48:21.623Z,106.23
2022-10-25T18:50:43.809Z,84.00
2022-10-25T18:53:06.121Z,26.97
2022-10-25T18:55:28.835Z,15.23
2022-10-25T18:57:51.400Z,19.60
2022-10-25T19:00:14.490Z,19.90
2022-10-25T19:02:37.889Z,21.50
2022-10-25T19:05:00.340Z,21.20
2022-10-25T19:07:22.595Z,21.77
2022-10-25T19:09:45.144Z,10.07
2022-10-25T19:12:07.361Z,9.03
2022-10-25T19:14:29.576Z,10.03
2022-10-25T19:16:51.724Z,5.23
2022-10-25T19:19:14.461Z,7.80
2022-10-25T19:21:36.669Z,10.77
2022-10-25T19:23:58.831Z,7.33
2022-10-25T19:26:22.687Z,8.33
2022-10-25T19:28:45.675Z,9.30
2022-10-25T19:31:08.942Z,10.83
2022-10-25T19:33:31.109Z,9.10
2022-10-25T19:35:53.461Z,11.20
2022-10-25T19:38:15.661Z,20.77
2022-10-25T19:40:37.837Z,31.40
2022-10-25T19:43:06.269Z,29.67
2022-10-25T19:45:28.938Z,19.13
2022-10-25T19:47:55.906Z,12.10
2022-10-25T19:50:18.096Z,10.27
2022-10-25T19:52:40.387Z,12.90
2022-10-25T19:57:25.793Z,10.30
2022-10-25T19:59:47.986Z,8.90
2022-10-25T20:02:10.560Z,10.90
2022-10-25T20:04:32.923Z,12.17
2022-10-25T20:06:55.304Z,12.83
2022-10-25T20:09:17.819Z,6.97
2022-10-25T20:11:40.020Z,6.77
2022-10-25T20:14:03.022Z,7.47
2022-10-25T20:16:26.014Z,10.33
2022-10-25T20:18:48.157Z,7.67
2022-10-25T20:21:11.900Z,7.10
2022-10-25T20:23:35.024Z,8.20
2022-10-25T20:25:57.312Z,6.97
2022-10-25T20:28:19.587Z,6.87
2022-10-25T20:30:41.829Z,8.87
2022-10-25T20:33:04.897Z,8.13
2022-10-25T20:35:27.235Z,6.33
2022-10-25T20:37:49.785Z,5.53
2022-10-25T20:40:12.445Z,9.80
2022-10-25T20:42:34.651Z,4.23
2022-10-25T20:44:56.885Z,8.30
2022-10-25T20:47:19.108Z,8.03
2022-10-25T20:49:41.368Z,7.53
2022-10-25T20:52:03.613Z,8.30
2022-10-25T20:54:25.812Z,9.63
2022-10-25T20:56:48.000Z,5.20
2022-10-25T20:59:10.225Z,11.07
2022-10-25T21:01:32.664Z,4.10
2022-10-25T21:03:54.931Z,7.47
2022-10-25T21:06:17.161Z,9.30
2022-10-25T21:08:40.851Z,7.70
2022-10-25T21:11:04.845Z,8.27
2022-10-25T21:13:28.335Z,22.47
2022-10-25T21:15:50.765Z,10.70
2022-10-25T21:18:12.963Z,6.10
2022-10-25T21:20:35.176Z,7.90
2022-10-25T21:22:57.463Z,12.13
2022-10-25T21:25:19.604Z,5.70
2022-10-25T21:27:41.948Z,9.67
2022-10-25T21:30:04.620Z,7.60
2022-10-25T21:32:26.794Z,8.03
2022-10-25T21:34:49.036Z,6.70
2022-10-25T21:37:11.280Z,6.77
2022-10-25T21:39:33.496Z,5.83
2022-10-25T21:41:55.674Z,9.23
2022-10-25T21:44:18.057Z,5.90
2022-10-25T21:46:40.283Z,11.63
2022-10-25T21:49:02.517Z,8.13
2022-10-25T21:51:25.176Z,7.50
2022-10-25T21:53:47.941Z,6.10
2022-10-25T21:56:11.520Z,6.03
2022-10-25T21:58:33.768Z,5.97
2022-10-25T22:00:55.959Z,8.73
2022-10-25T22:03:18.190Z,6.73
2022-10-25T22:05:44.258Z,8.10
2022-10-25T22:08:06.509Z,9.13
2022-10-25T22:10:28.773Z,9.10
2022-10-25T22:12:51.454Z,11.33
2022-10-25T22:15:13.792Z,8.77
2022-10-25T22:17:36.007Z,5.53
2022-10-25T22:19:58.207Z,8.43
2022-10-25T22:22:20.498Z,8.33
2022-10-25T22:24:42.844Z,9.80
2022-10-25T22:27:05.188Z,7.87
2022-10-25T22:29:27.473Z,7.03
2022-10-25T22:31:49.701Z,7.33
2022-10-25T22:34:11.872Z,6.13
2022-10-25T22:36:35.436Z,12.67
2022-10-25T22:38:57.708Z,7.43
2022-10-25T22:41:21.406Z,10.00
2022-10-25T22:43:43.976Z,8.50
2022-10-25T22:46:07.849Z,8.67
2022-10-25T22:48:30.680Z,6.37
2022-10-25T22:50:54.383Z,6.80
2022-10-25T22:53:16.656Z,4.40
2022-10-25T22:55:38.853Z,7.97
2022-10-25T22:58:01.038Z,7.50
2022-10-25T23:00:23.243Z,10.67
2022-10-25T23:02:45.765Z,6.33
2022-10-25T23:05:13.080Z,7.30
2022-10-25T23:07:35.309Z,8.00
2022-10-25T23:10:00.609Z,8.00
2022-10-25T23:12:23.004Z,7.43
2022-10-25T23:14:45.245Z,9.70
2022-10-25T23:17:07.409Z,9.97
2022-10-25T23:19:29.590Z,8.33
2022-10-25T23:21:51.767Z,6.70
2022-10-25T23:24:13.988Z,6.50
2022-10-25T23:26:36.702Z,4.40
2022-10-25T23:28:59.441Z,5.30
2022-10-25T23:31:21.728Z,7.00
2022-10-25T23:33:44.268Z,6.83
2022-10-25T23:36:12.144Z,6.40
2022-10-25T23:38:34.341Z,7.80
2022-10-25T23:40:56.537Z,6.33
2022-10-25T23:43:18.743Z,6.07
2022-10-25T23:45:42.378Z,5.27
2022-10-25T23:48:04.644Z,8.30
2022-10-25T23:50:26.805Z,6.13
2022-10-25T23:52:49.301Z,4.70
2022-10-25T23:55:11.632Z,7.47
2022-10-25T23:57:40.400Z,6.93
